createdAt,value
2017-11-01T00:17:35.573Z,7.48
2017-11-01T00:32:34.556Z,7.44
2017-11-01T00:47:35.285Z,7.41
2017-11-01T01:02:35.415Z,7.37
2017-11-01T01:17:34.901Z,7.31
2017-11-01T01:32:34.719Z,7.30
2017-11-01T01:47:34.837Z,7.31
2017-11-01T02:32:35.927Z,7.10
2017-11-01T02:47:36.889Z,7.08
2017-11-01T03:02:34.937Z,7.03
2017-11-01T03:47:36.679Z,6.91
2017-11-01T04:02:35.040Z,6.96
2017-11-01T04:17:34.543Z,6.98
2017-11-01T04:32:35.465Z,6.97
2017-11-01T05:02:35.217Z,6.99
2017-11-01T05:17:36.801Z,7.15
2017-11-01T05:32:35.645Z,7.35
2017-11-01T06:17:37.070Z,7.66
2017-11-01T07:02:34.692Z,8.36
2017-11-01T07:17:34.965Z,10.57
2017-11-01T07:32:34.052Z,12.57
2017-11-01T07:47:35.013Z,14.29
2017-11-01T08:02:34.891Z,15.83
2017-11-01T08:17:34.560Z,16.84
2017-11-01T08:32:34.369Z,16.78
2017-11-01T08:47:34.288Z,17.70
2017-11-01T09:02:34.265Z,18.47
2017-11-01T09:17:34.595Z,18.79
2017-11-01T09:32:34.512Z,19.35
2017-11-01T09:47:34.028Z,19.67
2017-11-01T10:02:34.373Z,19.79
2017-11-01T10:17:34.917Z,19.70
2017-11-01T10:32:34.932Z,19.27
2017-11-01T10:47:34.669Z,19.00
2017-11-01T11:02:34.599Z,18.73
2017-11-01T11:17:34.530Z,18.57
2017-11-01T11:32:33.913Z,17.91
2017-11-01T11:47:34.338Z,17.28
2017-11-01T12:02:34.323Z,16.65
2017-11-01T12:17:34.256Z,16.19
2017-11-01T12:32:34.676Z,15.49
2017-11-01T12:47:35.156Z,15.03
2017-11-01T13:02:34.992Z,14.46
2017-11-01T13:17:36.631Z,14.07
2017-11-01T13:32:34.467Z,13.59
2017-11-01T13:47:34.330Z,13.05
2017-11-01T14:02:34.288Z,12.61
2017-11-01T14:17:35.785Z,12.21
2017-11-01T14:32:34.646Z,11.79
2017-11-01T14:47:34.128Z,11.41
2017-11-01T15:02:34.577Z,11.02
2017-11-01T15:17:34.997Z,10.63
2017-11-01T15:32:34.877Z,10.31
2017-11-01T15:47:34.764Z,10.00
2017-11-01T16:02:34.734Z,9.68
2017-11-01T16:17:35.194Z,9.42
2017-11-01T16:32:37.105Z,9.17
2017-11-01T17:32:34.373Z,8.14
2017-11-01T18:17:35.076Z,7.50
2017-11-01T18:32:34.460Z,7.25
2017-11-01T19:02:36.257Z,6.96
2017-11-01T19:32:34.914Z,6.77
2017-11-01T19:47:34.724Z,6.66
2017-11-01T20:02:34.645Z,6.49
2017-11-01T20:17:35.205Z,6.43
2017-11-01T20:32:35.084Z,6.27
2017-11-01T20:47:37.140Z,5.93
2017-11-01T21:02:34.953Z,5.71
2017-11-01T21:17:34.398Z,5.67
2017-11-01T21:32:34.329Z,5.62
2017-11-01T21:47:34.206Z,5.60
2017-11-01T22:02:38.557Z,5.50
2017-11-01T22:17:34.567Z,5.31
2017-11-01T22:32:33.982Z,4.79
2017-11-01T22:47:36.880Z,4.86
2017-11-01T23:02:36.402Z,4.84
2017-11-01T23:17:34.764Z,4.78
2017-11-01T23:32:36.755Z,4.74
2017-11-01T23:47:34.171Z,4.57
